SAS461 ENGM-EKCH
Flight info
| Callsign | SAS461 |
|---|---|
| Flight time | 0h 56m |
| Altitude | 31000 |
| Route | OKSAT L996 GETPA/N0451F370 L996 KELIN DCT TOPLA L996 ERNOV |
| Aircraft | A319/M-SDE3FGHIRWY/LB1 |
Departure
| Time | 2026-05-05 14:26 |
|---|---|
| Airport | Oslo-Gardermoen International Airport (ENGM) |
Arrival
| Time | 2026-05-05 15:23 |
|---|---|
| Airport | Copenhagen Kastrup Airport (EKCH) |
| Time | Latitude | Longitude | Altitude | Speed | Heading |
|---|---|---|---|---|---|
| 2026-05-05 13:25 | 60.19446 | 11.10236 | 682 ft | 0 kts | 196° |
| 2026-05-05 14:07 | 60.19452 | 11.10239 | 682 ft | 4 kts | 198° |
| 2026-05-05 14:07 | 60.19475 | 11.10258 | 682 ft | 4 kts | 209° |
| 2026-05-05 14:07 | 60.19496 | 11.10286 | 677 ft | 4 kts | 222° |
| 2026-05-05 14:08 | 60.19513 | 11.10323 | 680 ft | 4 kts | 237° |
| 2026-05-05 14:08 | 60.19524 | 11.10366 | 678 ft | 4 kts | 252° |
| 2026-05-05 14:08 | 60.19530 | 11.10416 | 680 ft | 4 kts | 267° |
| 2026-05-05 14:08 | 60.19529 | 11.10466 | 682 ft | 4 kts | 281° |
| 2026-05-05 14:09 | 60.19525 | 11.10499 | 679 ft | 0 kts | 286° |
| 2026-05-05 14:14 | 60.19528 | 11.10475 | 680 ft | 3 kts | 286° |
| 2026-05-05 14:14 | 60.19540 | 11.10412 | 680 ft | 6 kts | 299° |
| 2026-05-05 14:15 | 60.19582 | 11.10396 | 682 ft | 2 kts | 23° |
| 2026-05-05 14:15 | 60.19602 | 11.10413 | 682 ft | 4 kts | 18° |
| 2026-05-05 14:15 | 60.19640 | 11.10435 | 682 ft | 7 kts | 15° |
| 2026-05-05 14:15 | 60.19666 | 11.10454 | 681 ft | 2 kts | 38° |
| 2026-05-05 14:16 | 60.19684 | 11.10466 | 682 ft | 4 kts | 5° |
| 2026-05-05 14:16 | 60.19719 | 11.10478 | 682 ft | 6 kts | 17° |
| 2026-05-05 14:16 | 60.19753 | 11.10553 | 681 ft | 9 kts | 73° |
| 2026-05-05 14:16 | 60.19715 | 11.10628 | 682 ft | 9 kts | 181° |
| 2026-05-05 14:17 | 60.19644 | 11.10585 | 682 ft | 12 kts | 197° |
| 2026-05-05 14:17 | 60.19601 | 11.10573 | 682 ft | 7 kts | 165° |
| 2026-05-05 14:17 | 60.19576 | 11.10663 | 680 ft | 9 kts | 105° |
| 2026-05-05 14:17 | 60.19557 | 11.10790 | 682 ft | 10 kts | 105° |
| 2026-05-05 14:18 | 60.19537 | 11.10935 | 683 ft | 11 kts | 106° |
| 2026-05-05 14:18 | 60.19513 | 11.11096 | 683 ft | 13 kts | 106° |
| 2026-05-05 14:18 | 60.19488 | 11.11275 | 683 ft | 14 kts | 105° |
| 2026-05-05 14:18 | 60.19463 | 11.11433 | 682 ft | 8 kts | 124° |
| 2026-05-05 14:19 | 60.19448 | 11.11455 | 685 ft | 0 kts | 152° |
| 2026-05-05 14:19 | 60.19447 | 11.11456 | 685 ft | 0 kts | 154° |
| 2026-05-05 14:20 | 60.19426 | 11.11455 | 685 ft | 6 kts | 195° |
| 2026-05-05 14:20 | 60.19372 | 11.11422 | 684 ft | 12 kts | 196° |
| 2026-05-05 14:20 | 60.19279 | 11.11369 | 684 ft | 16 kts | 196° |
| 2026-05-05 14:21 | 60.19148 | 11.11294 | 686 ft | 23 kts | 195° |
| 2026-05-05 14:21 | 60.18966 | 11.11188 | 682 ft | 31 kts | 195° |
| 2026-05-05 14:21 | 60.18745 | 11.11062 | 683 ft | 35 kts | 196° |
| 2026-05-05 14:21 | 60.18495 | 11.10917 | 682 ft | 39 kts | 196° |
| 2026-05-05 14:22 | 60.18255 | 11.10779 | 681 ft | 30 kts | 196° |
| 2026-05-05 14:22 | 60.18053 | 11.10663 | 680 ft | 29 kts | 196° |
| 2026-05-05 14:22 | 60.17855 | 11.10548 | 679 ft | 28 kts | 197° |
| 2026-05-05 14:22 | 60.17748 | 11.10491 | 681 ft | 5 kts | 183° |
| 2026-05-05 14:23 | 60.17714 | 11.10536 | 679 ft | 7 kts | 114° |
| 2026-05-05 14:23 | 60.17707 | 11.10594 | 676 ft | 0 kts | 105° |
| 2026-05-05 14:25 | 60.17705 | 11.10607 | 678 ft | 3 kts | 105° |
| 2026-05-05 14:25 | 60.17693 | 11.10704 | 676 ft | 12 kts | 100° |
| 2026-05-05 14:25 | 60.17716 | 11.10863 | 678 ft | 13 kts | 30° |
| 2026-05-05 14:25 | 60.17854 | 11.10939 | 679 ft | 42 kts | 15° |
| 2026-05-05 14:26 | 60.18330 | 11.11213 | 684 ft | 100 kts | 17° |
| 2026-05-05 14:26 | 60.19169 | 11.11698 | 684 ft | 153 kts | 16° |
| 2026-05-05 14:26 | 60.20221 | 11.12345 | 1190 ft | 157 kts | 13° |
| 2026-05-05 14:26 | 60.21118 | 11.13684 | 1802 ft | 176 kts | 59° |
| 2026-05-05 14:27 | 60.21360 | 11.16145 | 2500 ft | 181 kts | 79° |
| 2026-05-05 14:27 | 60.21546 | 11.18822 | 2909 ft | 205 kts | 78° |
| 2026-05-05 14:27 | 60.21801 | 11.21825 | 3321 ft | 230 kts | 77° |
| 2026-05-05 14:27 | 60.22106 | 11.25173 | 3889 ft | 255 kts | 77° |
| 2026-05-05 14:28 | 60.22445 | 11.28817 | 4652 ft | 272 kts | 77° |
| 2026-05-05 14:28 | 60.22801 | 11.32597 | 5648 ft | 278 kts | 76° |
| 2026-05-05 14:28 | 60.23235 | 11.36416 | 6665 ft | 281 kts | 74° |
| 2026-05-05 14:28 | 60.23722 | 11.40258 | 7693 ft | 285 kts | 73° |
| 2026-05-05 14:29 | 60.24057 | 11.42826 | 8380 ft | 288 kts | 73° |
| 2026-05-05 14:29 | 60.24388 | 11.46853 | 9341 ft | 296 kts | 90° |
| 2026-05-05 14:29 | 60.23634 | 11.52135 | 10549 ft | 303 kts | 123° |
| 2026-05-05 14:29 | 60.22166 | 11.55306 | 10980 ft | 322 kts | 149° |
| 2026-05-05 14:30 | 60.20789 | 11.56663 | 11238 ft | 331 kts | 163° |
| 2026-05-05 14:30 | 60.18563 | 11.58111 | 11971 ft | 339 kts | 169° |
| 2026-05-05 14:30 | 60.16232 | 11.58829 | 12815 ft | 340 kts | 181° |
| 2026-05-05 14:30 | 60.13897 | 11.58599 | 13637 ft | 341 kts | 193° |
| 2026-05-05 14:31 | 60.11605 | 11.57381 | 14412 ft | 339 kts | 204° |
| 2026-05-05 14:31 | 60.09377 | 11.55776 | 15223 ft | 341 kts | 205° |
| 2026-05-05 14:31 | 60.07132 | 11.54175 | 16069 ft | 342 kts | 206° |
| 2026-05-05 14:31 | 60.04889 | 11.52582 | 16922 ft | 342 kts | 206° |
| 2026-05-05 14:32 | 60.02636 | 11.50993 | 17765 ft | 344 kts | 207° |
| 2026-05-05 14:32 | 60.00382 | 11.49406 | 18541 ft | 344 kts | 208° |
| 2026-05-05 14:32 | 59.98124 | 11.47815 | 19268 ft | 345 kts | 209° |
| 2026-05-05 14:32 | 59.95759 | 11.46649 | 19897 ft | 359 kts | 198° |
| 2026-05-05 14:33 | 59.93200 | 11.46602 | 20583 ft | 379 kts | 185° |
| 2026-05-05 14:33 | 59.90567 | 11.47889 | 21220 ft | 404 kts | 171° |
| 2026-05-05 14:33 | 59.88042 | 11.50512 | 21810 ft | 422 kts | 161° |
| 2026-05-05 14:33 | 59.85504 | 11.53508 | 22384 ft | 426 kts | 161° |
| 2026-05-05 14:34 | 59.82945 | 11.56530 | 22931 ft | 430 kts | 162° |
| 2026-05-05 14:34 | 59.80359 | 11.59567 | 23432 ft | 434 kts | 162° |
| 2026-05-05 14:34 | 59.77745 | 11.62612 | 23884 ft | 437 kts | 162° |
| 2026-05-05 14:34 | 59.75111 | 11.65654 | 24341 ft | 440 kts | 162° |
| 2026-05-05 14:35 | 59.72460 | 11.68705 | 24809 ft | 442 kts | 162° |
| 2026-05-05 14:35 | 59.69792 | 11.71767 | 25268 ft | 444 kts | 162° |
| 2026-05-05 14:35 | 59.67116 | 11.74839 | 25730 ft | 446 kts | 162° |
| 2026-05-05 14:35 | 59.64386 | 11.77681 | 26081 ft | 438 kts | 169° |
| 2026-05-05 14:36 | 59.61564 | 11.79664 | 26602 ft | 425 kts | 176° |
| 2026-05-05 14:36 | 59.58716 | 11.81265 | 27100 ft | 426 kts | 176° |
| 2026-05-05 14:36 | 59.55865 | 11.82862 | 27626 ft | 427 kts | 175° |
| 2026-05-05 14:36 | 59.53004 | 11.84466 | 28091 ft | 429 kts | 175° |
| 2026-05-05 14:37 | 59.50127 | 11.86079 | 28543 ft | 431 kts | 175° |
| 2026-05-05 14:37 | 59.47238 | 11.87704 | 28986 ft | 434 kts | 175° |
| 2026-05-05 14:37 | 59.44326 | 11.89341 | 29411 ft | 436 kts | 175° |
| 2026-05-05 14:37 | 59.41402 | 11.90980 | 29819 ft | 438 kts | 175° |
| 2026-05-05 14:38 | 59.38461 | 11.92629 | 30176 ft | 441 kts | 175° |
| 2026-05-05 14:38 | 59.35500 | 11.94257 | 30498 ft | 441 kts | 177° |
| 2026-05-05 14:38 | 59.32517 | 11.95259 | 30738 ft | 431 kts | 185° |
| 2026-05-05 14:38 | 59.29554 | 11.95390 | 31031 ft | 422 kts | 193° |
| 2026-05-05 14:39 | 59.26614 | 11.95057 | 31326 ft | 424 kts | 193° |
| 2026-05-05 14:39 | 59.23657 | 11.94714 | 31620 ft | 427 kts | 193° |
| 2026-05-05 14:39 | 59.20691 | 11.94380 | 32025 ft | 426 kts | 193° |
| 2026-05-05 14:39 | 59.17735 | 11.94058 | 32436 ft | 426 kts | 193° |
| 2026-05-05 14:40 | 59.14775 | 11.93742 | 32853 ft | 426 kts | 193° |
| 2026-05-05 14:40 | 59.11814 | 11.93431 | 33255 ft | 426 kts | 193° |
| 2026-05-05 14:40 | 59.08853 | 11.93118 | 33668 ft | 426 kts | 192° |
| 2026-05-05 14:40 | 59.05849 | 11.93348 | 34038 ft | 439 kts | 183° |
| 2026-05-05 14:41 | 59.02820 | 11.94055 | 34322 ft | 439 kts | 182° |
| 2026-05-05 14:41 | 58.99787 | 11.94784 | 34662 ft | 439 kts | 182° |
| 2026-05-05 14:41 | 58.96795 | 11.95513 | 34969 ft | 440 kts | 182° |
| 2026-05-05 14:41 | 58.93758 | 11.96253 | 35289 ft | 440 kts | 181° |
| 2026-05-05 14:42 | 58.90720 | 11.96982 | 35600 ft | 440 kts | 181° |
| 2026-05-05 14:42 | 58.87678 | 11.97703 | 35903 ft | 440 kts | 181° |
| 2026-05-05 14:42 | 58.84638 | 11.98420 | 36200 ft | 441 kts | 181° |
| 2026-05-05 14:42 | 58.81592 | 11.99139 | 36497 ft | 441 kts | 181° |
| 2026-05-05 14:43 | 58.78551 | 11.99858 | 36777 ft | 441 kts | 180° |
| 2026-05-05 14:43 | 58.75497 | 12.00582 | 36876 ft | 442 kts | 180° |
| 2026-05-05 14:43 | 58.69401 | 12.02032 | 36929 ft | 441 kts | 180° |
| 2026-05-05 14:44 | 58.63310 | 12.03460 | 36936 ft | 441 kts | 180° |
| 2026-05-05 14:44 | 58.57221 | 12.04882 | 36946 ft | 441 kts | 180° |
| 2026-05-05 14:45 | 58.51137 | 12.06291 | 36934 ft | 441 kts | 180° |
| 2026-05-05 14:45 | 58.45047 | 12.07700 | 36892 ft | 441 kts | 180° |
| 2026-05-05 14:46 | 58.38963 | 12.09113 | 36918 ft | 441 kts | 180° |
| 2026-05-05 14:46 | 58.32868 | 12.10527 | 36925 ft | 441 kts | 180° |
| 2026-05-05 14:47 | 58.26780 | 12.11920 | 36933 ft | 441 kts | 180° |
| 2026-05-05 14:47 | 58.20690 | 12.13311 | 36940 ft | 441 kts | 180° |
| 2026-05-05 14:48 | 58.14602 | 12.14713 | 36946 ft | 441 kts | 180° |
| 2026-05-05 14:48 | 58.08553 | 12.16095 | 36951 ft | 441 kts | 180° |
| 2026-05-05 14:49 | 58.02462 | 12.17469 | 36959 ft | 441 kts | 180° |
| 2026-05-05 14:49 | 57.96376 | 12.18841 | 36957 ft | 441 kts | 180° |
| 2026-05-05 14:50 | 57.90292 | 12.20209 | 36955 ft | 440 kts | 180° |
| 2026-05-05 14:50 | 57.84208 | 12.21572 | 36931 ft | 440 kts | 180° |
| 2026-05-05 14:51 | 57.78129 | 12.22938 | 36928 ft | 440 kts | 180° |
| 2026-05-05 14:51 | 57.72051 | 12.24283 | 36765 ft | 440 kts | 180° |
| 2026-05-05 14:52 | 57.69017 | 12.24959 | 36504 ft | 439 kts | 180° |
| 2026-05-05 14:52 | 57.65981 | 12.25633 | 36248 ft | 438 kts | 180° |
| 2026-05-05 14:52 | 57.62956 | 12.26301 | 36010 ft | 438 kts | 181° |
| 2026-05-05 14:52 | 57.59928 | 12.26969 | 35715 ft | 438 kts | 181° |
| 2026-05-05 14:53 | 57.56908 | 12.27633 | 35467 ft | 437 kts | 181° |
| 2026-05-05 14:53 | 57.53886 | 12.28300 | 35134 ft | 437 kts | 181° |
| 2026-05-05 14:53 | 57.50854 | 12.28967 | 34324 ft | 442 kts | 181° |
| 2026-05-05 14:53 | 57.47785 | 12.29637 | 33493 ft | 446 kts | 181° |
| 2026-05-05 14:54 | 57.44727 | 12.30314 | 33067 ft | 439 kts | 181° |
| 2026-05-05 14:54 | 57.41712 | 12.30983 | 32550 ft | 434 kts | 181° |
| 2026-05-05 14:54 | 57.38729 | 12.31643 | 32044 ft | 430 kts | 181° |
| 2026-05-05 14:54 | 57.35772 | 12.32294 | 31531 ft | 426 kts | 181° |
| 2026-05-05 14:55 | 57.32847 | 12.32933 | 31025 ft | 422 kts | 181° |
| 2026-05-05 14:55 | 57.29945 | 12.33563 | 30512 ft | 417 kts | 181° |
| 2026-05-05 14:55 | 57.27074 | 12.34186 | 30019 ft | 414 kts | 181° |
| 2026-05-05 14:55 | 57.24227 | 12.34803 | 29473 ft | 410 kts | 181° |
| 2026-05-05 14:56 | 57.21418 | 12.35412 | 28988 ft | 404 kts | 181° |
| 2026-05-05 14:56 | 57.18640 | 12.36016 | 28511 ft | 400 kts | 181° |
| 2026-05-05 14:56 | 57.15891 | 12.36613 | 28040 ft | 395 kts | 181° |
| 2026-05-05 14:56 | 57.13175 | 12.37198 | 27575 ft | 391 kts | 181° |
| 2026-05-05 14:57 | 57.10491 | 12.37770 | 27118 ft | 387 kts | 181° |
| 2026-05-05 14:57 | 57.07825 | 12.38341 | 26678 ft | 384 kts | 181° |
| 2026-05-05 14:57 | 57.05184 | 12.38907 | 26253 ft | 380 kts | 181° |
| 2026-05-05 14:57 | 57.02568 | 12.39463 | 25823 ft | 377 kts | 181° |
| 2026-05-05 14:58 | 56.99971 | 12.40012 | 25436 ft | 373 kts | 181° |
| 2026-05-05 14:58 | 56.97400 | 12.40558 | 25032 ft | 371 kts | 181° |
| 2026-05-05 14:58 | 56.94848 | 12.41104 | 24636 ft | 368 kts | 181° |
| 2026-05-05 14:58 | 56.92312 | 12.41649 | 24226 ft | 365 kts | 181° |
| 2026-05-05 14:59 | 56.89804 | 12.42182 | 23843 ft | 362 kts | 181° |
| 2026-05-05 14:59 | 56.87311 | 12.42710 | 23430 ft | 359 kts | 181° |
| 2026-05-05 14:59 | 56.84843 | 12.43235 | 22989 ft | 355 kts | 181° |
| 2026-05-05 14:59 | 56.82404 | 12.43760 | 22581 ft | 351 kts | 181° |
| 2026-05-05 15:00 | 56.80001 | 12.44277 | 22178 ft | 346 kts | 181° |
| 2026-05-05 15:00 | 56.78423 | 12.44613 | 21901 ft | 344 kts | 181° |
| 2026-05-05 15:00 | 56.75296 | 12.45276 | 21314 ft | 339 kts | 181° |
| 2026-05-05 15:00 | 56.72963 | 12.45771 | 20929 ft | 335 kts | 181° |
| 2026-05-05 15:01 | 56.70654 | 12.46260 | 20516 ft | 333 kts | 181° |
| 2026-05-05 15:01 | 56.68360 | 12.46741 | 20095 ft | 331 kts | 181° |
| 2026-05-05 15:01 | 56.66076 | 12.47216 | 19675 ft | 329 kts | 181° |
| 2026-05-05 15:01 | 56.63805 | 12.47688 | 19256 ft | 328 kts | 181° |
| 2026-05-05 15:02 | 56.61548 | 12.48158 | 18830 ft | 327 kts | 181° |
| 2026-05-05 15:02 | 56.59292 | 12.48627 | 18413 ft | 326 kts | 181° |
| 2026-05-05 15:02 | 56.57048 | 12.49095 | 17957 ft | 325 kts | 181° |
| 2026-05-05 15:02 | 56.54810 | 12.49563 | 17527 ft | 322 kts | 181° |
| 2026-05-05 15:03 | 56.52593 | 12.50026 | 17112 ft | 319 kts | 181° |
| 2026-05-05 15:03 | 56.50392 | 12.50484 | 16693 ft | 317 kts | 181° |
| 2026-05-05 15:03 | 56.48207 | 12.50940 | 16275 ft | 315 kts | 181° |
| 2026-05-05 15:03 | 56.46034 | 12.51389 | 15850 ft | 313 kts | 181° |
| 2026-05-05 15:04 | 56.43878 | 12.51833 | 15446 ft | 311 kts | 180° |
| 2026-05-05 15:04 | 56.41732 | 12.52276 | 15043 ft | 310 kts | 180° |
| 2026-05-05 15:04 | 56.39593 | 12.52718 | 14630 ft | 309 kts | 180° |
| 2026-05-05 15:04 | 56.37459 | 12.53159 | 14221 ft | 308 kts | 180° |
| 2026-05-05 15:05 | 56.33207 | 12.54035 | 13375 ft | 307 kts | 180° |
| 2026-05-05 15:05 | 56.31094 | 12.54472 | 12962 ft | 305 kts | 180° |
| 2026-05-05 15:05 | 56.28996 | 12.54905 | 12564 ft | 303 kts | 180° |
| 2026-05-05 15:06 | 56.26909 | 12.55334 | 12165 ft | 301 kts | 179° |
| 2026-05-05 15:06 | 56.24834 | 12.55759 | 11784 ft | 299 kts | 179° |
| 2026-05-05 15:06 | 56.22771 | 12.56182 | 11388 ft | 298 kts | 179° |
| 2026-05-05 15:06 | 56.20723 | 12.56601 | 11162 ft | 293 kts | 179° |
| 2026-05-05 15:07 | 56.18694 | 12.57019 | 11058 ft | 293 kts | 179° |
| 2026-05-05 15:07 | 56.16673 | 12.57388 | 10940 ft | 290 kts | 184° |
| 2026-05-05 15:07 | 56.14663 | 12.57412 | 10730 ft | 288 kts | 185° |
| 2026-05-05 15:07 | 56.12659 | 12.57425 | 10522 ft | 288 kts | 185° |
| 2026-05-05 15:08 | 56.10662 | 12.57442 | 10322 ft | 287 kts | 185° |
| 2026-05-05 15:08 | 56.08668 | 12.57460 | 10114 ft | 286 kts | 185° |
| 2026-05-05 15:08 | 56.06679 | 12.57476 | 9914 ft | 285 kts | 185° |
| 2026-05-05 15:08 | 56.04694 | 12.57489 | 9699 ft | 285 kts | 185° |
| 2026-05-05 15:09 | 56.02715 | 12.57505 | 9479 ft | 285 kts | 184° |
| 2026-05-05 15:09 | 56.00736 | 12.57528 | 9282 ft | 284 kts | 184° |
| 2026-05-05 15:09 | 55.98762 | 12.57553 | 9076 ft | 284 kts | 184° |
| 2026-05-05 15:09 | 55.96786 | 12.57579 | 8876 ft | 283 kts | 184° |
| 2026-05-05 15:10 | 55.94844 | 12.57602 | 8679 ft | 283 kts | 184° |
| 2026-05-05 15:10 | 55.92873 | 12.57621 | 8466 ft | 283 kts | 183° |
| 2026-05-05 15:10 | 55.90907 | 12.57640 | 8276 ft | 282 kts | 183° |
| 2026-05-05 15:10 | 55.88942 | 12.57654 | 8075 ft | 282 kts | 183° |
| 2026-05-05 15:11 | 55.86995 | 12.57403 | 7875 ft | 279 kts | 195° |
| 2026-05-05 15:11 | 55.85161 | 12.56395 | 7679 ft | 276 kts | 204° |
| 2026-05-05 15:11 | 55.83363 | 12.55211 | 7485 ft | 276 kts | 203° |
| 2026-05-05 15:11 | 55.81562 | 12.54041 | 7288 ft | 276 kts | 203° |
| 2026-05-05 15:12 | 55.79759 | 12.52877 | 7091 ft | 276 kts | 203° |
| 2026-05-05 15:12 | 55.77952 | 12.51713 | 6895 ft | 276 kts | 202° |
| 2026-05-05 15:12 | 55.76145 | 12.50553 | 6695 ft | 277 kts | 203° |
| 2026-05-05 15:12 | 55.74333 | 12.49385 | 6501 ft | 277 kts | 202° |
| 2026-05-05 15:13 | 55.72521 | 12.48215 | 6296 ft | 278 kts | 203° |
| 2026-05-05 15:13 | 55.70700 | 12.47037 | 6098 ft | 279 kts | 202° |
| 2026-05-05 15:13 | 55.68882 | 12.45865 | 5898 ft | 278 kts | 202° |
| 2026-05-05 15:13 | 55.67063 | 12.44699 | 5698 ft | 278 kts | 201° |
| 2026-05-05 15:14 | 55.65252 | 12.43540 | 5501 ft | 276 kts | 201° |
| 2026-05-05 15:14 | 55.63448 | 12.42388 | 5308 ft | 276 kts | 201° |
| 2026-05-05 15:14 | 55.61638 | 12.41230 | 5113 ft | 277 kts | 201° |
| 2026-05-05 15:14 | 55.59915 | 12.39802 | 4990 ft | 272 kts | 214° |
| 2026-05-05 15:15 | 55.58432 | 12.37705 | 5001 ft | 274 kts | 223° |
| 2026-05-05 15:15 | 55.56996 | 12.35490 | 4990 ft | 274 kts | 223° |
| 2026-05-05 15:15 | 55.55545 | 12.33270 | 4584 ft | 277 kts | 222° |
| 2026-05-05 15:15 | 55.54102 | 12.31069 | 4362 ft | 272 kts | 222° |
| 2026-05-05 15:16 | 55.52690 | 12.28920 | 4219 ft | 263 kts | 222° |
| 2026-05-05 15:16 | 55.51775 | 12.27551 | 4116 ft | 257 kts | 219° |
| 2026-05-05 15:16 | 55.50187 | 12.26304 | 3975 ft | 249 kts | 186° |
| 2026-05-05 15:16 | 55.48525 | 12.26760 | 3786 ft | 241 kts | 152° |
| 2026-05-05 15:17 | 55.47307 | 12.28656 | 3515 ft | 233 kts | 120° |
| 2026-05-05 15:17 | 55.46394 | 12.31014 | 3243 ft | 233 kts | 126° |
| 2026-05-05 15:17 | 55.45341 | 12.33189 | 3034 ft | 230 kts | 127° |
| 2026-05-05 15:17 | 55.44689 | 12.35607 | 2939 ft | 212 kts | 92° |
| 2026-05-05 15:18 | 55.44948 | 12.38033 | 2838 ft | 200 kts | 57° |
| 2026-05-05 15:18 | 55.45871 | 12.39809 | 2736 ft | 197 kts | 38° |
| 2026-05-05 15:18 | 55.46887 | 12.41368 | 2641 ft | 189 kts | 38° |
| 2026-05-05 15:18 | 55.47856 | 12.42856 | 2506 ft | 181 kts | 38° |
| 2026-05-05 15:19 | 55.48798 | 12.44301 | 2381 ft | 178 kts | 37° |
| 2026-05-05 15:19 | 55.49707 | 12.45698 | 2292 ft | 167 kts | 38° |
| 2026-05-05 15:19 | 55.50557 | 12.47008 | 2145 ft | 157 kts | 37° |
| 2026-05-05 15:19 | 55.51341 | 12.48217 | 2060 ft | 142 kts | 38° |
| 2026-05-05 15:20 | 55.52069 | 12.49337 | 2004 ft | 136 kts | 37° |
| 2026-05-05 15:20 | 55.52780 | 12.50430 | 1952 ft | 138 kts | 37° |
| 2026-05-05 15:20 | 55.53511 | 12.51556 | 1658 ft | 139 kts | 37° |
| 2026-05-05 15:20 | 55.54240 | 12.52678 | 1413 ft | 139 kts | 38° |
| 2026-05-05 15:21 | 55.54960 | 12.53788 | 1202 ft | 135 kts | 38° |
| 2026-05-05 15:21 | 55.55651 | 12.54851 | 1012 ft | 132 kts | 39° |
| 2026-05-05 15:21 | 55.56341 | 12.55908 | 815 ft | 131 kts | 38° |
| 2026-05-05 15:21 | 55.57030 | 12.56958 | 614 ft | 131 kts | 38° |
| 2026-05-05 15:22 | 55.57714 | 12.58003 | 450 ft | 131 kts | 37° |
| 2026-05-05 15:22 | 55.58400 | 12.59064 | 254 ft | 130 kts | 39° |
| 2026-05-05 15:22 | 55.59073 | 12.60124 | 106 ft | 129 kts | 38° |
| 2026-05-05 15:22 | 55.59726 | 12.61140 | 19 ft | 112 kts | 43° |
| 2026-05-05 15:23 | 55.60184 | 12.61845 | 20 ft | 62 kts | 41° |
| 2026-05-05 15:23 | 55.60429 | 12.62211 | 19 ft | 43 kts | 36° |
| 2026-05-05 15:23 | 55.60611 | 12.62335 | 25 ft | 23 kts | 12° |
| 2026-05-05 15:23 | 55.60771 | 12.62399 | 22 ft | 25 kts | 21° |
| 2026-05-05 15:24 | 55.60917 | 12.62598 | 19 ft | 30 kts | 41° |
| 2026-05-05 15:24 | 55.61074 | 12.62838 | 19 ft | 25 kts | 41° |
| 2026-05-05 15:24 | 55.61214 | 12.63054 | 21 ft | 29 kts | 41° |
| 2026-05-05 15:24 | 55.61380 | 12.63313 | 22 ft | 34 kts | 41° |
| 2026-05-05 15:25 | 55.61532 | 12.63546 | 18 ft | 31 kts | 41° |
| 2026-05-05 15:25 | 55.61658 | 12.63741 | 19 ft | 20 kts | 41° |
| 2026-05-05 15:25 | 55.61771 | 12.63917 | 21 ft | 23 kts | 41° |
| 2026-05-05 15:25 | 55.61918 | 12.64113 | 23 ft | 29 kts | 24° |
| 2026-05-05 15:26 | 55.62087 | 12.64252 | 19 ft | 20 kts | 26° |
| 2026-05-05 15:26 | 55.62207 | 12.64352 | 16 ft | 19 kts | 25° |
| 2026-05-05 15:26 | 55.62325 | 12.64421 | 20 ft | 16 kts | 13° |
| 2026-05-05 15:26 | 55.62434 | 12.64469 | 20 ft | 14 kts | 15° |
| 2026-05-05 15:27 | 55.62458 | 12.64595 | 25 ft | 13 kts | 104° |
| 2026-05-05 15:27 | 55.62529 | 12.64651 | 21 ft | 16 kts | 355° |
| 2026-05-05 15:27 | 55.62623 | 12.64657 | 20 ft | 10 kts | 11° |
| 2026-05-05 15:27 | 55.62676 | 12.64678 | 20 ft | 6 kts | 9° |
| 2026-05-05 15:28 | 55.62695 | 12.64618 | 20 ft | 5 kts | 279° |
| 2026-05-05 15:28 | 55.62698 | 12.64590 | 21 ft | 0 kts | 283° |